Etusivu
METAR-TAF:

METAR-TAF

Lentoasemat :

Carlsbad, New Mexico, Yhdysvallat

Leveyspiiri: 32-20-15N, Pituuspiiri: 104-15-48W, korkeus merenpinnasta: 1004 m

Tämänhetkinen sää

Tämä raportti tehtiin 50 minuuttia sitten, kello 06.53 UTC
Tuuli 8 kn etelästä/kaakosta
Lämpötila 8°C
Kosteus 76%
Ilmanpaine 1014 hPa
Näkyvyys: 16.1 km
selkeää

METAR: KCNM 050653Z AUTO 16008KT 10SM CLR 08/04 A2995 RMK AO2 SLP116 T00780044 401720044

Aika: 01:43 (07:43 UTC)

Sääennuste

Tämä raportti tehtiin 2 tuntia ja 12 minuuttia sitten, kello 05.31 UTC
Ennuste voimassa 05. päivästä klo 06 UTC - 06. päivään klo 06 UTC
Tuuli 10 kn etelästä/kaakosta
Näkyvyys: 10 km
Hajanaisia pilviä 25000 ft:n korkeudessa
From 05. päivästä klo 1800 UTC
Tuuli 15 kn lounaasta puuskistuen 22 kn:hen
Näkyvyys: 10 km
Hajanaisia pilviä 25000 ft:n korkeudessa

TAF: KCNM 050531Z 0506/0606 16010KT P6SM SCT250 FM051800 22015G22KT P6SM SCT250

Säähavainnot ja -ennusteet yli 4000 lentoasemalta (METAR- ja TAF-raportit).

Käytössä olevat sääasemat on merkitty karttaan keltaisilla ja punaisilla pisteillä.

Aseta hiiri pisteen päälle nähdäksesi sääaseman nimen.

Klikkaa sitten nähdäksesi säähavainnot ja -ennusteet.

Kartan vaihtaminen: klikkaa mustalla rastilla varustettuja vihreitä pisteitä, niin voit zoomata sisään; viivalla varustettua vihreää pistettä, niin voit zoomata ulos tai vihreitä nuolia, niin pääset viereisille kartoille.


METAR-TAF: